Terminal Aerodrome Forecast
Issued by NWS Charleston, WV

Current Version | Previous Version | Graphics & Text | Print | Product List | Glossary On
Versions: 1 2 3 4 5 6 7 8 9 10 11 12 13 14 15 16 17 18 19 20 21 22 23 24 25
000
FTUS41 KRLX 051600 AAC
TAFEKN
TAF AMD
KEKN 051610Z 0516/0612 32008KT 1SM -SN BR OVC008
      TEMPO 0516/0519 1/4SM +SN FG OVC003
     FM052000 32005KT 2SM -SN BR OVC008
     FM052200 32008KT 4SM -SN BR OVC010
     FM060000 32004KT P6SM -SN OVC020
     FM060700 34002KT P6SM SCT020=

USA.gov is the U.S. government's official web portal to all federal, state and local government web resources and services.